Time;durP1;ratioP1;P1;durP2;ratioP2;P2;SDS_P1;SDS_P2;PMS_P1;PMS_P2;Temp;Humidity;BMP_temperature;BMP_pressure;BME280_temperature;BME280_humidity;BME280_pressure;Samples;Min_cycle;Max_cycle;Signal;HPM_P1;HPM_P2
2023/03/28 08:19:48;;;;;;;5.93;1.37;;;6.70;99.90;;;;;;4930318;29;20224;-70
2023/03/28 08:22:15;;;;;;;5.53;1.50;;;6.90;99.90;;;;;;4936800;29;20209;-69
2023/03/28 08:24:42;;;;;;;5.40;1.50;;;7.10;99.90;;;;;;4936833;29;20311;-69
2023/03/28 08:27:09;;;;;;;2.80;1.50;;;7.20;99.90;;;;;;4936829;29;20219;-68
2023/03/28 08:29:36;;;;;;;6.83;1.90;;;7.20;99.90;;;;;;4936633;29;20272;-70
2023/03/28 08:32:05;;;;;;;4.33;1.33;;;7.30;99.90;;;;;;4936653;29;20567;-72
2023/03/28 08:34:32;;;;;;;5.17;2.20;;;7.00;99.90;;;;;;4936204;29;20268;-66
2023/03/28 08:37:00;;;;;;;6.37;1.53;;;7.10;99.90;;;;;;4935900;29;20284;-68
2023/03/28 08:39:27;;;;;;;3.87;1.37;;;7.10;99.90;;;;;;4935955;29;20213;-67
2023/03/28 08:42:15;;;;;;;4.23;1.20;;;7.20;99.90;;;;;;4932748;29;20209;-66
2023/03/28 08:44:57;;;;;;;3.83;1.50;;;7.30;99.90;;;;;;4913363;29;20239;-65
2023/03/28 08:47:29;;;;;;;3.93;1.47;;;7.20;99.90;;;;;;4920516;29;20205;-66
2023/03/28 08:50:00;;;;;;;3.80;1.37;;;7.40;99.90;;;;;;4934074;29;20240;-66
2023/03/28 08:52:28;;;;;;;5.37;1.23;;;7.50;99.90;;;;;;4934781;29;20572;-68
2023/03/28 08:55:00;;;;;;;5.00;1.30;;;7.20;99.90;;;;;;4934821;29;20692;-67
2023/03/28 08:57:29;;;;;;;7.17;1.63;;;7.50;99.90;;;;;;4934512;29;20216;-67
2023/03/28 09:00:07;;;;;;;2.30;1.20;;;7.60;99.90;;;;;;4935103;29;20204;-67
2023/03/28 09:02:34;;;;;;;4.07;1.43;;;7.70;99.90;;;;;;4934792;29;20292;-67
2023/03/28 09:05:02;;;;;;;8.17;1.53;;;7.70;99.90;;;;;;4933968;29;20233;-66
2023/03/28 09:07:36;;;;;;;2.70;1.23;;;7.80;99.90;;;;;;4934447;29;20208;-66
2023/03/28 09:10:15;;;;;;;8.13;1.53;;;8.10;99.90;;;;;;4934841;29;20660;-66
2023/03/28 09:12:57;;;;;;;5.87;1.80;;;8.30;99.90;;;;;;4934190;29;20210;-66
2023/03/28 09:15:53;;;;;;;3.03;1.30;;;8.50;99.90;;;;;;4916678;29;20245;-67
2023/03/28 09:18:55;;;;;;;4.27;1.40;;;8.80;99.90;;;;;;4934545;29;20850;-66
2023/03/28 09:21:32;;;;;;;4.43;1.30;;;8.80;99.90;;;;;;4927343;29;20295;-66
2023/03/28 09:24:22;;;;;;;4.83;1.10;;;8.80;99.90;;;;;;4933660;29;20212;-67
2023/03/28 09:26:57;;;;;;;4.03;1.23;;;9.00;99.90;;;;;;4933725;29;20212;-67
2023/03/28 09:29:27;;;;;;;2.83;1.43;;;9.20;99.90;;;;;;4915693;29;20209;-66
2023/03/28 09:31:59;;;;;;;4.40;1.67;;;9.00;99.90;;;;;;4916412;29;20304;-67
2023/03/28 09:34:29;;;;;;;2.47;0.83;;;8.80;99.90;;;;;;4916261;29;20578;-67
2023/03/28 09:37:02;;;;;;;5.07;1.30;;;8.90;99.90;;;;;;4917170;29;20244;-68
2023/03/28 09:39:35;;;;;;;3.63;1.00;;;8.90;99.90;;;;;;4935479;29;20236;-67
2023/03/28 09:42:06;;;;;;;3.50;1.33;;;9.10;99.90;;;;;;4935838;29;20219;-68
2023/03/28 09:44:40;;;;;;;4.23;0.97;;;9.20;99.90;;;;;;4935377;29;20229;-69
2023/03/28 09:47:10;;;;;;;8.27;1.10;;;8.90;99.90;;;;;;4934218;29;20231;-68
2023/03/28 09:49:37;;;;;;;2.90;1.20;;;9.10;99.90;;;;;;4934901;29;20213;-68
2023/03/28 09:52:14;;;;;;;3.43;1.23;;;9.10;99.90;;;;;;4935449;29;20209;-68
2023/03/28 09:54:43;;;;;;;3.10;1.57;;;8.90;99.90;;;;;;4934903;29;20220;-67
2023/03/28 09:57:10;;;;;;;3.57;1.30;;;8.70;99.90;;;;;;4934745;29;20219;-67
2023/03/28 09:59:37;;;;;;;2.40;1.10;;;8.80;99.90;;;;;;4935128;29;20564;-67
2023/03/28 10:02:04;;;;;;;1.87;1.00;;;8.90;99.90;;;;;;4935400;29;20213;-67
2023/03/28 10:04:33;;;;;;;6.60;1.30;;;9.10;99.90;;;;;;4935072;29;20239;-67
2023/03/28 10:07:27;;;;;;;5.47;1.00;;;9.20;99.90;;;;;;4935261;29;20225;-68
2023/03/28 10:09:57;;;;;;;3.30;1.33;;;9.30;99.90;;;;;;4935357;29;20208;-68
2023/03/28 10:12:26;;;;;;;3.93;1.03;;;9.30;99.90;;;;;;4935356;29;20220;-69
2023/03/28 10:14:53;;;;;;;4.33;1.10;;;9.50;99.90;;;;;;4934952;29;20228;-68
2023/03/28 10:17:27;;;;;;;1.30;0.70;;;9.70;99.90;;;;;;4935249;29;20212;-69
2023/03/28 10:20:00;;;;;;;1.90;0.90;;;9.80;99.90;;;;;;4939061;29;20213;-67
2023/03/28 10:22:31;;;;;;;2.40;1.10;;;9.70;99.90;;;;;;4938980;29;20556;-68
2023/03/28 10:25:00;;;;;;;6.63;1.30;;;9.70;99.90;;;;;;4939082;29;20225;-67
2023/03/28 10:27:30;;;;;;;3.27;0.93;;;9.80;99.90;;;;;;4938919;29;20564;-68
2023/03/28 10:30:08;;;;;;;2.30;0.97;;;9.90;99.90;;;;;;4938968;29;20579;-67
2023/03/28 10:32:35;;;;;;;2.10;0.73;;;10.10;99.90;;;;;;4938511;29;20738;-67
2023/03/28 10:35:06;;;;;;;3.57;0.90;;;10.50;99.90;;;;;;4938552;29;20232;-68
2023/03/28 10:37:35;;;;;;;1.33;0.80;;;10.40;99.90;;;;;;4938621;29;20209;-68
2023/03/28 10:40:06;;;;;;;2.87;0.80;;;10.50;99.90;;;;;;4951620;29;20212;-69
2023/03/28 10:42:41;;;;;;;4.73;1.00;;;10.40;99.90;;;;;;4957488;29;20615;-69
2023/03/28 10:45:20;;;;;;;1.87;0.83;;;10.30;99.90;;;;;;4957332;28;20714;-68
2023/03/28 10:47:49;;;;;;;3.67;0.90;;;10.30;99.90;;;;;;4949702;29;20208;-69
2023/03/28 10:50:26;;;;;;;3.30;0.90;;;10.30;99.90;;;;;;4938433;29;20572;-69
2023/03/28 10:52:59;;;;;;;2.77;0.77;;;10.40;99.90;;;;;;4938481;29;20208;-69
2023/03/28 10:55:37;;;;;;;4.93;0.80;;;10.60;99.90;;;;;;4938151;29;20247;-69
2023/03/28 10:58:11;;;;;;;3.57;0.93;;;10.60;99.90;;;;;;4938026;29;20647;-69
2023/03/28 11:00:42;;;;;;;3.10;0.90;;;10.60;99.90;;;;;;4938419;29;20205;-68
2023/03/28 11:03:28;;;;;;;3.13;0.80;;;10.60;99.90;;;;;;4938306;29;20205;-69
2023/03/28 11:05:58;;;;;;;1.97;0.97;;;10.90;99.90;;;;;;4937927;29;20726;-69
2023/03/28 11:08:36;;;;;;;2.03;0.50;;;10.90;99.90;;;;;;4938036;29;20219;-68
2023/03/28 11:11:14;;;;;;;2.07;0.77;;;11.00;99.90;;;;;;4937968;29;20208;-68
2023/03/28 11:13:50;;;;;;;2.97;0.57;;;11.50;99.90;;;;;;4938038;29;20660;-68
2023/03/28 11:16:25;;;;;;;1.10;0.60;;;11.70;99.90;;;;;;4937768;29;20236;-69
2023/03/28 11:19:03;;;;;;;2.70;0.70;;;11.60;99.90;;;;;;4937568;29;20293;-70
2023/03/28 11:21:36;;;;;;;4.83;0.80;;;11.00;99.90;;;;;;4938134;29;20209;-68
2023/03/28 11:24:14;;;;;;;6.13;0.90;;;10.90;99.90;;;;;;4937773;29;20660;-69
2023/03/28 11:26:52;;;;;;;1.37;0.63;;;11.10;99.90;;;;;;4938063;29;20227;-67
2023/03/28 11:29:28;;;;;;;2.80;0.60;;;11.00;99.90;;;;;;4936978;29;20656;-68
2023/03/28 11:32:05;;;;;;;1.87;0.77;;;11.10;99.90;;;;;;4938056;29;20295;-68
2023/03/28 11:34:37;;;;;;;2.20;0.80;;;11.20;99.90;;;;;;4937423;29;20731;-68
2023/03/28 11:37:09;;;;;;;6.57;0.80;;;11.30;99.90;;;;;;4937603;29;20328;-68
2023/03/28 11:39:43;;;;;;;2.90;0.80;;;11.50;99.90;;;;;;4938297;29;20209;-68
2023/03/28 11:42:19;;;;;;;1.17;0.60;;;11.70;99.90;;;;;;4938071;29;20215;-68
2023/03/28 11:44:56;;;;;;;1.37;0.40;;;12.00;99.90;;;;;;4937654;29;20323;-68
2023/03/28 11:47:28;;;;;;;3.47;0.80;;;11.90;99.90;;;;;;4937350;29;20291;-67
2023/03/28 11:50:02;;;;;;;1.67;0.67;;;11.90;99.90;;;;;;4937245;29;20682;-68
2023/03/28 11:52:33;;;;;;;3.70;0.80;;;11.90;99.90;;;;;;4938204;29;20211;-68
2023/03/28 11:55:06;;;;;;;2.00;0.80;;;11.90;99.90;;;;;;4937199;29;20239;-68
2023/03/28 11:57:40;;;;;;;2.03;0.70;;;11.90;99.90;;;;;;4937227;29;20715;-68
2023/03/28 12:00:17;;;;;;;1.10;0.60;;;12.20;99.90;;;;;;4937222;29;20209;-68
2023/03/28 12:02:50;;;;;;;4.33;0.70;;;12.40;99.90;;;;;;4937386;29;20208;-68
2023/03/28 12:05:23;;;;;;;5.03;1.10;;;12.40;99.90;;;;;;4937379;29;20229;-68
2023/03/28 12:07:56;;;;;;;8.60;3.90;;;12.30;99.90;;;;;;4937157;29;20205;-68
2023/03/28 12:10:27;;;;;;;2.63;0.90;;;12.30;99.90;;;;;;4936964;29;20215;-68
2023/03/28 12:13:03;;;;;;;3.03;0.60;;;12.50;99.90;;;;;;4937687;29;20215;-68
2023/03/28 12:15:37;;;;;;;1.93;0.60;;;12.70;99.90;;;;;;4937055;29;20228;-68
2023/03/28 12:18:11;;;;;;;1.80;0.73;;;12.60;99.90;;;;;;4937023;29;20212;-68
2023/03/28 12:20:44;;;;;;;2.10;0.90;;;12.40;99.90;;;;;;4937220;29;20215;-68
2023/03/28 12:23:17;;;;;;;1.90;0.77;;;12.50;99.90;;;;;;4937265;29;20216;-68
2023/03/28 12:25:53;;;;;;;2.70;0.90;;;12.50;99.90;;;;;;4937433;29;20228;-68
2023/03/28 12:28:32;;;;;;;2.77;1.00;;;11.80;99.90;;;;;;4936903;29;20208;-68
2023/03/28 12:31:07;;;;;;;3.07;1.10;;;11.70;99.90;;;;;;4937262;29;20215;-68
2023/03/28 12:33:44;;;;;;;2.40;0.90;;;11.80;99.90;;;;;;4936941;29;20212;-68
2023/03/28 12:36:19;;;;;;;2.20;0.90;;;11.70;99.90;;;;;;4936810;29;20282;-68
2023/03/28 12:38:52;;;;;;;2.57;0.90;;;11.50;99.90;;;;;;4936756;29;20204;-68
2023/03/28 12:41:23;;;;;;;5.20;1.00;;;11.60;99.90;;;;;;4937150;29;20209;-68
2023/03/28 12:43:55;;;;;;;3.13;0.77;;;11.70;99.90;;;;;;4936890;29;20208;-68
2023/03/28 12:46:27;;;;;;;3.10;1.10;;;11.40;99.90;;;;;;4936817;29;20751;-68
2023/03/28 12:49:00;;;;;;;2.97;0.77;;;11.40;99.90;;;;;;4936885;29;20209;-68
2023/03/28 12:51:32;;;;;;;2.60;0.90;;;11.50;99.90;;;;;;4936862;29;20213;-68
2023/03/28 12:54:08;;;;;;;1.57;0.90;;;11.40;99.90;;;;;;4936629;29;20226;-68
2023/03/28 12:56:35;;;;;;;3.23;1.10;;;11.50;99.90;;;;;;4936466;29;20255;-68
2023/03/28 12:59:35;;;;;;;2.33;0.83;;;11.60;99.90;;;;;;4936886;29;20249;-68
2023/03/28 13:02:09;;;;;;;2.10;1.00;;;11.80;99.90;;;;;;4936778;29;20212;-68
2023/03/28 13:04:45;;;;;;;1.03;0.53;;;12.00;99.90;;;;;;4936297;29;20238;-68
2023/03/28 13:07:17;;;;;;;2.90;1.07;;;11.80;99.90;;;;;;4936073;29;20681;-67
2023/03/28 13:10:01;;;;;;;3.37;1.43;;;11.80;99.90;;;;;;4936572;29;20554;-68
2023/03/28 13:12:53;;;;;;;2.37;0.90;;;11.90;99.90;;;;;;4936433;29;20215;-68
2023/03/28 13:15:32;;;;;;;2.70;0.70;;;11.90;99.90;;;;;;4932900;29;20240;-68
2023/03/28 13:18:24;;;;;;;2.57;0.90;;;12.20;99.90;;;;;;4936417;29;20240;-68
2023/03/28 13:20:52;;;;;;;1.50;0.73;;;12.40;99.90;;;;;;4936583;29;20223;-68
2023/03/28 13:23:27;;;;;;;4.27;1.20;;;12.60;99.90;;;;;;4936324;29;20220;-68
2023/03/28 13:25:55;;;;;;;3.70;0.80;;;12.50;99.90;;;;;;4936079;29;20717;-68
2023/03/28 13:28:29;;;;;;;2.67;0.90;;;12.00;99.90;;;;;;4936228;29;20588;-68
2023/03/28 13:31:24;;;;;;;3.97;1.33;;;12.00;99.90;;;;;;4936180;29;20215;-68
2023/03/28 13:33:57;;;;;;;2.60;0.80;;;12.20;99.90;;;;;;4935717;29;20660;-68
2023/03/28 13:36:26;;;;;;;1.20;0.70;;;12.40;99.90;;;;;;4935907;29;20726;-68
2023/03/28 13:39:22;;;;;;;3.47;1.00;;;12.50;99.90;;;;;;4936043;29;20205;-68
2023/03/28 13:42:01;;;;;;;2.43;0.80;;;12.70;99.90;;;;;;4934767;29;20220;-68
2023/03/28 13:44:41;;;;;;;2.77;1.10;;;12.20;99.90;;;;;;4935882;29;20236;-68
2023/03/28 13:47:15;;;;;;;1.73;0.80;;;12.00;99.90;;;;;;4935982;29;20208;-68
2023/03/28 13:49:46;;;;;;;4.50;1.20;;;11.90;99.90;;;;;;4935891;29;20214;-68
2023/03/28 13:52:17;;;;;;;5.50;0.77;;;11.70;99.90;;;;;;4935694;29;20223;-68
2023/03/28 13:54:44;;;;;;;1.80;0.80;;;11.80;99.90;;;;;;4935251;29;20229;-68
2023/03/28 13:57:16;;;;;;;1.73;0.80;;;11.90;99.90;;;;;;4935866;29;20268;-68
2023/03/28 13:59:50;;;;;;;2.07;0.70;;;12.00;99.90;;;;;;4935746;29;20296;-68
2023/03/28 14:02:22;;;;;;;2.40;1.03;;;12.10;99.90;;;;;;4935481;29;20263;-67
2023/03/28 14:04:53;;;;;;;4.30;0.83;;;12.30;99.90;;;;;;4935180;29;20707;-67
2023/03/28 14:07:24;;;;;;;4.20;0.70;;;12.20;99.90;;;;;;4935364;29;20208;-67
2023/03/28 14:09:52;;;;;;;3.73;0.90;;;12.00;99.90;;;;;;4933344;29;20208;-67
2023/03/28 14:12:20;;;;;;;1.57;0.70;;;11.90;99.90;;;;;;4931349;29;20204;-67
2023/03/28 14:14:50;;;;;;;1.37;0.60;;;11.90;99.90;;;;;;4935643;29;20228;-68
2023/03/28 14:17:21;;;;;;;3.07;0.70;;;12.00;99.90;;;;;;4935145;29;20595;-68
2023/03/28 14:19:53;;;;;;;2.63;0.50;;;11.80;99.90;;;;;;4934850;29;20268;-68
2023/03/28 14:22:21;;;;;;;1.13;0.50;;;11.80;99.90;;;;;;4935324;29;20710;-68
2023/03/28 14:24:51;;;;;;;2.80;0.90;;;11.80;99.90;;;;;;4935168;29;20319;-68
2023/03/28 14:27:29;;;;;;;1.20;0.90;;;11.60;99.90;;;;;;4934958;29;20220;-69
2023/03/28 14:29:57;;;;;;;2.63;0.97;;;11.40;99.90;;;;;;4934569;29;20763;-68
2023/03/28 14:32:30;;;;;;;5.10;0.80;;;11.40;99.90;;;;;;4935051;29;20205;-67
2023/03/28 14:35:10;;;;;;;5.87;0.70;;;11.50;99.90;;;;;;4934942;29;20229;-67
2023/03/28 14:37:37;;;;;;;1.03;0.70;;;11.60;99.90;;;;;;4931026;29;20667;-67
2023/03/28 14:40:18;;;;;;;1.83;0.80;;;11.50;99.90;;;;;;4932781;29;20674;-67
2023/03/28 14:42:45;;;;;;;1.97;1.10;;;11.50;99.90;;;;;;4933207;29;20212;-68
2023/03/28 14:45:14;;;;;;;2.33;0.60;;;11.60;99.90;;;;;;4932760;29;20260;-68
2023/03/28 14:47:42;;;;;;;0.93;0.50;;;11.70;99.90;;;;;;4933590;29;20209;-67
2023/03/28 14:50:14;;;;;;;1.87;0.63;;;11.70;99.90;;;;;;4933493;29;20300;-68
2023/03/28 14:52:43;;;;;;;0.90;0.50;;;11.60;99.90;;;;;;4933389;29;20209;-68
2023/03/28 14:55:16;;;;;;;1.60;1.10;;;11.50;99.90;;;;;;4933577;29;20699;-69
2023/03/28 14:57:44;;;;;;;3.63;0.60;;;11.30;99.90;;;;;;4933609;29;20335;-68
2023/03/28 15:00:16;;;;;;;2.00;0.50;;;11.10;99.90;;;;;;4933068;29;20201;-68
2023/03/28 15:02:45;;;;;;;3.50;0.67;;;10.90;99.90;;;;;;4933417;29;20209;-68
2023/03/28 15:05:15;;;;;;;2.27;0.53;;;10.80;99.90;;;;;;4936020;29;20224;-68
2023/03/28 15:07:43;;;;;;;1.63;0.70;;;10.80;99.90;;;;;;4936004;29;20208;-68
2023/03/28 15:10:11;;;;;;;3.33;0.70;;;10.70;99.90;;;;;;4935991;29;20201;-68
2023/03/28 15:12:45;;;;;;;2.37;0.30;;;10.70;99.90;;;;;;4936250;29;20219;-69
2023/03/28 15:15:19;;;;;;;2.03;0.60;;;10.70;99.90;;;;;;4936440;29;20318;-68
2023/03/28 15:17:48;;;;;;;3.67;1.07;;;10.60;99.90;;;;;;4936760;29;20712;-68
2023/03/28 15:20:18;;;;;;;5.20;0.80;;;10.40;99.90;;;;;;4937185;29;20572;-70
2023/03/28 15:22:49;;;;;;;1.83;0.67;;;10.40;99.90;;;;;;4938021;29;20699;-69
2023/03/28 15:25:16;;;;;;;1.00;0.50;;;10.50;99.90;;;;;;4937668;29;20229;-68
2023/03/28 15:27:47;;;;;;;1.20;0.60;;;10.40;99.90;;;;;;4937748;29;20212;-68
2023/03/28 15:30:18;;;;;;;1.70;0.67;;;10.40;99.90;;;;;;4937442;29;20215;-68
2023/03/28 15:32:45;;;;;;;3.00;0.60;;;10.40;99.90;;;;;;4937335;29;20216;-70
2023/03/28 15:35:26;;;;;;;2.67;0.70;;;10.40;99.90;;;;;;4937067;29;20710;-69
2023/03/28 15:38:01;;;;;;;1.73;0.70;;;10.50;99.90;;;;;;4937537;29;20262;-69
2023/03/28 15:40:31;;;;;;;2.30;0.73;;;10.60;99.90;;;;;;4937729;29;20205;-69
2023/03/28 15:42:59;;;;;;;1.43;0.83;;;10.60;99.90;;;;;;4937625;29;21188;-69
2023/03/28 15:45:37;;;;;;;1.30;0.60;;;10.60;99.90;;;;;;4937608;29;20233;-69
2023/03/28 15:48:05;;;;;;;1.57;0.80;;;10.60;99.90;;;;;;4937406;29;20212;-68
2023/03/28 15:50:37;;;;;;;4.40;0.70;;;10.60;99.90;;;;;;4936762;29;20205;-69
2023/03/28 15:53:06;;;;;;;2.40;0.60;;;10.70;99.90;;;;;;4937084;29;20217;-68
2023/03/28 15:55:34;;;;;;;1.60;0.70;;;10.80;99.90;;;;;;4936915;29;20240;-68
2023/03/28 15:58:04;;;;;;;1.70;0.80;;;10.60;99.90;;;;;;4937190;29;20247;-68
2023/03/28 16:00:42;;;;;;;1.47;0.70;;;10.50;99.90;;;;;;4937080;29;20205;-68
2023/03/28 16:03:35;;;;;;;3.67;0.83;;;10.30;99.90;;;;;;4918092;29;20213;-69
2023/03/28 16:06:21;;;;;;;3.90;1.10;;;10.20;99.90;;;;;;4928418;29;20248;-72
2023/03/28 16:08:49;;;;;;;3.03;1.00;;;10.20;99.90;;;;;;4937181;29;20223;-72
2023/03/28 16:11:20;;;;;;;1.77;0.70;;;10.20;99.90;;;;;;4936902;29;20264;-73
2023/03/28 16:13:47;;;;;;;3.33;0.70;;;10.40;99.90;;;;;;4936874;29;20212;-72
2023/03/28 16:16:21;;;;;;;3.67;1.20;;;10.40;99.90;;;;;;4936275;29;20237;-71
2023/03/28 16:18:48;;;;;;;2.97;0.90;;;10.30;99.90;;;;;;4936578;29;20262;-70
2023/03/28 16:21:17;;;;;;;3.67;0.97;;;10.20;99.90;;;;;;4936322;29;20759;-73
2023/03/28 16:23:45;;;;;;;4.10;1.07;;;10.00;99.90;;;;;;4936544;29;20238;-72
2023/03/28 16:26:12;;;;;;;4.53;1.00;;;9.90;99.90;;;;;;4936235;29;20232;-72
2023/03/28 16:28:39;;;;;;;1.73;0.80;;;9.80;99.90;;;;;;4935859;29;20200;-72
2023/03/28 16:31:10;;;;;;;1.57;0.83;;;9.70;99.90;;;;;;4936211;29;20668;-73
2023/03/28 16:33:37;;;;;;;5.07;0.90;;;9.70;99.90;;;;;;4936276;29;20211;-72
2023/03/28 16:36:04;;;;;;;2.27;0.70;;;9.50;99.90;;;;;;4936392;29;20243;-73
2023/03/28 16:38:32;;;;;;;3.27;0.93;;;9.40;99.90;;;;;;4936436;29;20240;-73
2023/03/28 16:40:59;;;;;;;2.00;0.73;;;9.20;99.90;;;;;;4936328;29;20563;-72
2023/03/28 16:43:26;;;;;;;1.73;0.80;;;9.10;99.90;;;;;;4936491;29;20208;-72
2023/03/28 16:45:53;;;;;;;4.20;0.70;;;8.80;99.90;;;;;;4936124;29;20727;-73
2023/03/28 16:48:20;;;;;;;1.23;0.43;;;8.50;99.90;;;;;;4936391;29;20209;-72
2023/03/28 16:50:54;;;;;;;0.90;0.80;;;8.20;99.90;;;;;;4935887;29;20204;-73
2023/03/28 16:53:21;;;;;;;1.23;0.70;;;8.00;99.90;;;;;;4936210;29;20304;-73
2023/03/28 16:55:50;;;;;;;1.00;0.67;;;7.90;99.90;;;;;;4935484;29;20229;-73
2023/03/28 16:58:17;;;;;;;3.13;0.80;;;7.90;99.90;;;;;;4935878;29;20243;-72
2023/03/28 17:00:45;;;;;;;2.13;0.83;;;7.80;99.90;;;;;;4936202;29;20292;-73
2023/03/28 17:03:11;;;;;;;2.93;0.90;;;7.70;99.90;;;;;;4935887;29;20301;-75
2023/03/28 17:05:38;;;;;;;3.63;1.13;;;7.70;99.90;;;;;;4935757;29;20217;-74
2023/03/28 17:08:06;;;;;;;1.73;0.60;;;7.70;99.90;;;;;;4936014;29;21032;-74
2023/03/28 17:10:33;;;;;;;1.50;1.07;;;7.70;99.90;;;;;;4935756;29;20204;-72
2023/03/28 17:13:02;;;;;;;2.23;0.70;;;7.60;99.90;;;;;;4936361;29;20209;-71
2023/03/28 17:15:29;;;;;;;1.30;0.63;;;7.50;99.90;;;;;;4935877;29;20228;-71
2023/03/28 17:17:56;;;;;;;3.37;0.87;;;7.50;99.90;;;;;;4935710;29;20242;-74
2023/03/28 17:20:23;;;;;;;1.97;1.17;;;7.30;99.90;;;;;;4935628;29;20295;-72
2023/03/28 17:22:50;;;;;;;3.67;0.80;;;7.30;99.90;;;;;;4935727;29;20296;-72
2023/03/28 17:25:17;;;;;;;1.33;0.90;;;7.30;99.90;;;;;;4935785;29;20595;-70
2023/03/28 17:27:44;;;;;;;2.63;1.10;;;7.30;99.90;;;;;;4935154;29;20315;-70
2023/03/28 17:30:13;;;;;;;0.90;0.80;;;7.50;99.90;;;;;;4936297;29;20208;-70
2023/03/28 17:32:40;;;;;;;3.67;0.87;;;7.30;99.90;;;;;;4935607;29;20212;-70
2023/03/28 17:35:08;;;;;;;1.30;0.70;;;7.20;99.90;;;;;;4935388;29;20291;-70
2023/03/28 17:37:37;;;;;;;1.87;0.83;;;7.20;99.90;;;;;;4935227;29;20299;-70
2023/03/28 17:40:05;;;;;;;1.97;1.20;;;7.10;99.90;;;;;;4935903;29;20208;-70
2023/03/28 17:42:31;;;;;;;1.47;0.90;;;7.10;99.90;;;;;;4935958;29;20216;-70
2023/03/28 17:44:58;;;;;;;1.00;0.57;;;7.00;99.90;;;;;;4935354;29;20235;-70
2023/03/28 17:47:26;;;;;;;2.07;0.70;;;7.00;99.90;;;;;;4935904;29;20706;-70
2023/03/28 17:49:55;;;;;;;0.80;0.50;;;6.80;99.90;;;;;;4935450;29;20208;-70
2023/03/28 17:52:23;;;;;;;4.93;0.70;;;6.80;99.90;;;;;;4935536;29;20640;-70
2023/03/28 17:54:50;;;;;;;2.20;0.60;;;6.80;99.90;;;;;;4935952;29;20233;-70
2023/03/28 17:57:17;;;;;;;2.07;0.80;;;6.80;99.90;;;;;;4935254;29;20209;-70
2023/03/28 17:59:44;;;;;;;4.20;1.00;;;6.70;99.90;;;;;;4935429;29;20209;-70
2023/03/28 18:02:10;;;;;;;1.67;1.00;;;6.80;99.90;;;;;;4935409;29;20581;-70
2023/03/28 18:04:38;;;;;;;1.80;1.00;;;6.80;99.90;;;;;;4934968;29;20288;-70
2023/03/28 18:07:06;;;;;;;2.80;1.10;;;6.80;99.90;;;;;;4935184;29;20315;-70
2023/03/28 18:09:32;;;;;;;1.97;0.90;;;6.70;99.90;;;;;;4935764;29;20304;-70
2023/03/28 18:11:59;;;;;;;2.57;1.40;;;6.60;99.90;;;;;;4935345;29;20209;-70
2023/03/28 18:14:28;;;;;;;1.57;0.73;;;6.50;99.90;;;;;;4935355;29;20240;-70
2023/03/28 18:16:55;;;;;;;2.40;0.60;;;6.40;99.90;;;;;;4935179;29;20268;-70
2023/03/28 18:19:22;;;;;;;2.83;0.77;;;6.40;99.90;;;;;;4930728;29;20236;-69
2023/03/28 18:21:50;;;;;;;1.13;0.60;;;6.60;99.90;;;;;;4933617;29;20243;-71
2023/03/28 18:24:19;;;;;;;2.83;0.80;;;6.40;99.90;;;;;;4935326;29;20288;-70
2023/03/28 18:26:46;;;;;;;1.10;0.80;;;6.30;99.90;;;;;;4935218;29;20260;-70
2023/03/28 18:29:13;;;;;;;1.63;0.73;;;6.30;99.90;;;;;;4935398;29;20219;-70
2023/03/28 18:31:41;;;;;;;1.03;0.70;;;6.30;99.90;;;;;;4934989;29;20208;-70
2023/03/28 18:34:08;;;;;;;2.27;0.90;;;6.30;99.90;;;;;;4934940;29;20308;-67
2023/03/28 18:36:35;;;;;;;1.70;0.73;;;6.40;99.90;;;;;;4934895;29;20208;-69
2023/03/28 18:39:05;;;;;;;1.80;0.80;;;6.50;99.90;;;;;;4935151;29;20591;-69
2023/03/28 18:41:32;;;;;;;3.00;0.80;;;6.40;99.90;;;;;;4934524;29;20209;-69
2023/03/28 18:43:59;;;;;;;1.23;0.70;;;6.50;99.90;;;;;;4936322;29;20213;-69
2023/03/28 18:46:28;;;;;;;0.63;0.40;;;6.40;99.90;;;;;;4936767;29;20215;-70
2023/03/28 18:48:55;;;;;;;4.53;0.67;;;6.40;99.90;;;;;;4936482;29;20209;-69
2023/03/28 18:51:22;;;;;;;1.67;0.77;;;6.50;99.90;;;;;;4937905;29;20201;-70
2023/03/28 18:53:49;;;;;;;1.70;1.00;;;6.50;99.90;;;;;;4919498;29;20239;-70
2023/03/28 18:56:17;;;;;;;1.93;1.00;;;6.50;99.90;;;;;;4919253;29;20604;-69
2023/03/28 18:58:44;;;;;;;2.20;0.93;;;6.40;99.90;;;;;;4918919;29;20241;-69
2023/03/28 19:01:11;;;;;;;1.63;0.77;;;6.30;99.90;;;;;;4919607;29;20209;-69
2023/03/28 19:03:40;;;;;;;1.77;0.80;;;6.40;99.90;;;;;;4932721;29;20665;-69
2023/03/28 19:06:08;;;;;;;1.37;0.80;;;6.40;99.90;;;;;;4938050;29;20237;-69
2023/03/28 19:08:35;;;;;;;1.33;0.77;;;6.40;99.90;;;;;;4938190;29;20213;-69
2023/03/28 19:11:07;;;;;;;1.10;0.70;;;6.50;99.90;;;;;;4938340;29;20212;-69
2023/03/28 19:13:35;;;;;;;3.43;0.80;;;6.40;99.90;;;;;;4938206;29;20213;-69
2023/03/28 19:16:05;;;;;;;1.73;0.97;;;6.50;99.90;;;;;;4938352;29;20315;-70
2023/03/28 19:18:33;;;;;;;1.60;0.87;;;6.60;99.90;;;;;;4937902;29;20243;-69
2023/03/28 19:20:59;;;;;;;2.43;0.93;;;6.70;99.90;;;;;;4937990;29;20208;-69
2023/03/28 19:23:28;;;;;;;2.80;1.20;;;6.80;99.90;;;;;;4938185;29;20209;-69
2023/03/28 19:25:55;;;;;;;2.23;1.33;;;6.80;99.90;;;;;;4937701;29;20239;-70
2023/03/28 19:28:22;;;;;;;3.20;0.93;;;6.80;99.90;;;;;;4937916;29;20209;-69
2023/03/28 19:30:57;;;;;;;2.63;1.03;;;6.90;99.90;;;;;;4937573;29;20209;-69
2023/03/28 19:33:23;;;;;;;2.70;1.30;;;7.10;99.90;;;;;;4937293;29;20216;-69
2023/03/28 19:35:50;;;;;;;4.77;1.27;;;7.20;99.90;;;;;;4937587;29;20224;-69
2023/03/28 19:38:18;;;;;;;3.17;1.33;;;7.20;99.90;;;;;;4937355;29;20240;-70
2023/03/28 19:40:46;;;;;;;3.63;1.50;;;7.20;99.90;;;;;;4937556;29;20221;-69
2023/03/28 19:43:13;;;;;;;2.40;1.20;;;7.10;99.90;;;;;;4937888;29;20572;-69
2023/03/28 19:45:40;;;;;;;2.60;1.03;;;7.20;99.90;;;;;;4937421;29;20228;-68
2023/03/28 19:48:09;;;;;;;1.83;1.27;;;7.10;99.90;;;;;;4937787;29;20217;-69
2023/03/28 19:50:35;;;;;;;2.37;1.10;;;7.10;99.90;;;;;;4936427;29;20572;-69
2023/03/28 19:53:02;;;;;;;1.73;0.90;;;7.10;99.90;;;;;;4937063;29;20304;-70
2023/03/28 19:55:29;;;;;;;4.03;1.10;;;7.10;99.90;;;;;;4937229;29;20704;-69
2023/03/28 19:57:57;;;;;;;3.70;1.77;;;7.00;99.90;;;;;;4937273;29;20213;-69
2023/03/28 20:00:24;;;;;;;4.37;0.90;;;7.10;99.90;;;;;;4937287;29;20672;-69
2023/03/28 20:02:51;;;;;;;3.90;1.00;;;7.10;99.90;;;;;;4937215;29;20661;-69
2023/03/28 20:05:19;;;;;;;4.17;1.00;;;7.10;99.90;;;;;;4936977;29;20239;-69
2023/03/28 20:07:46;;;;;;;1.20;0.70;;;7.00;99.90;;;;;;4937277;29;20236;-69
2023/03/28 20:10:13;;;;;;;2.70;0.80;;;7.00;99.90;;;;;;4937337;29;20209;-69
2023/03/28 20:12:39;;;;;;;1.60;0.83;;;7.10;99.90;;;;;;4937398;29;20571;-69
2023/03/28 20:15:08;;;;;;;2.00;0.60;;;7.20;99.90;;;;;;4937684;29;20332;-69
2023/03/28 20:17:35;;;;;;;2.20;0.70;;;7.20;99.90;;;;;;4937410;29;20229;-69
2023/03/28 20:20:03;;;;;;;1.43;0.63;;;7.30;99.90;;;;;;4937011;29;20236;-69
2023/03/28 20:22:32;;;;;;;0.97;0.50;;;7.30;99.90;;;;;;4936863;29;20264;-70
2023/03/28 20:25:00;;;;;;;1.03;0.60;;;7.30;99.90;;;;;;4937009;29;20259;-70
2023/03/28 20:27:27;;;;;;;1.73;0.63;;;7.20;99.90;;;;;;4937039;29;20240;-69
2023/03/28 20:29:54;;;;;;;1.30;0.70;;;7.30;99.90;;;;;;4937003;29;20236;-69
2023/03/28 20:32:21;;;;;;;1.43;0.90;;;7.30;99.90;;;;;;4936516;29;20604;-69
2023/03/28 20:34:48;;;;;;;1.33;0.70;;;7.40;99.90;;;;;;4936206;29;20235;-70
2023/03/28 20:37:16;;;;;;;1.10;0.70;;;7.40;99.90;;;;;;4936637;29;20205;-69
2023/03/28 20:39:46;;;;;;;1.97;0.70;;;7.40;99.90;;;;;;4936773;29;20240;-68
2023/03/28 20:42:13;;;;;;;2.37;0.93;;;7.40;99.90;;;;;;4936508;29;20212;-69
2023/03/28 20:44:40;;;;;;;3.23;0.70;;;7.40;99.90;;;;;;4936376;29;20229;-69
2023/03/28 20:47:09;;;;;;;1.73;0.70;;;7.30;99.90;;;;;;4936474;29;20291;-68
2023/03/28 20:49:37;;;;;;;1.57;0.60;;;7.30;99.90;;;;;;4936339;29;20208;-68
2023/03/28 20:52:05;;;;;;;2.20;0.70;;;7.40;99.90;;;;;;4936168;29;20213;-68
2023/03/28 20:54:33;;;;;;;1.03;0.50;;;7.50;99.90;;;;;;4935924;29;20228;-68
2023/03/28 20:57:01;;;;;;;1.20;0.57;;;7.60;99.90;;;;;;4936345;29;20264;-68
2023/03/28 20:59:27;;;;;;;1.67;0.60;;;7.50;99.90;;;;;;4936361;29;20241;-69
2023/03/28 21:01:54;;;;;;;2.73;0.70;;;7.50;99.90;;;;;;4935826;29;20209;-69
2023/03/28 21:04:21;;;;;;;1.97;0.70;;;7.60;99.90;;;;;;4936437;29;20239;-69
2023/03/28 21:06:48;;;;;;;1.73;0.80;;;7.60;99.90;;;;;;4936422;29;20309;-68
2023/03/28 21:09:16;;;;;;;1.47;0.60;;;7.70;99.90;;;;;;4936178;29;20208;-69
2023/03/28 21:11:43;;;;;;;2.40;0.60;;;7.70;99.90;;;;;;4935767;29;20264;-68
2023/03/28 21:14:13;;;;;;;3.90;0.60;;;7.70;99.90;;;;;;4935540;29;20723;-69
2023/03/28 21:16:41;;;;;;;1.00;0.60;;;7.60;99.90;;;;;;4935859;29;20660;-69
2023/03/28 21:19:08;;;;;;;1.80;0.70;;;7.50;99.90;;;;;;4935422;29;20247;-68
2023/03/28 21:21:35;;;;;;;2.03;0.80;;;7.60;99.90;;;;;;4936003;29;20679;-69
2023/03/28 21:24:03;;;;;;;1.97;0.53;;;7.60;99.90;;;;;;4936067;29;20663;-69
2023/03/28 21:26:30;;;;;;;0.70;0.40;;;7.70;99.90;;;;;;4935756;29;20209;-69
2023/03/28 21:28:57;;;;;;;1.63;0.70;;;7.70;99.90;;;;;;4935844;29;20220;-69
2023/03/28 21:31:28;;;;;;;0.90;0.53;;;7.70;99.90;;;;;;4936210;29;20229;-70
